Time;durP1;ratioP1;P1;durP2;ratioP2;P2;SDS_P1;SDS_P2;PMS_P1;PMS_P2;Temp;Humidity;BMP_temperature;BMP_pressure;BME280_temperature;BME280_humidity;BME280_pressure;Samples;Min_cycle;Max_cycle;Signal;HPM_P1;HPM_P2
2023/07/23 00:00:33;;;;;;;4.70;3.63;;;18.40;22.40;;;;;;5055320;28;20235;-80
2023/07/23 00:02:58;;;;;;;4.40;4.00;;;18.40;18.70;;;;;;5055392;28;20177;-80
2023/07/23 00:05:24;;;;;;;5.13;4.00;;;18.40;19.70;;;;;;5055084;28;20281;-80
2023/07/23 00:07:56;;;;;;;6.47;4.00;;;18.40;16.20;;;;;;5055340;28;20193;-82
2023/07/23 00:10:22;;;;;;;4.00;3.63;;;18.40;15.20;;;;;;5054930;28;20173;-81
2023/07/23 00:12:48;;;;;;;3.83;3.42;;;18.40;13.10;;;;;;5055051;28;20624;-81
2023/07/23 00:15:14;;;;;;;4.40;4.00;;;18.40;11.70;;;;;;5055023;28;20213;-80
2023/07/23 00:17:40;;;;;;;6.05;4.10;;;18.40;12.20;;;;;;5054980;28;20253;-81
2023/07/23 00:20:10;;;;;;;5.60;3.90;;;18.50;7.00;;;;;;5055134;28;20251;-81
2023/07/23 00:22:39;;;;;;;5.00;3.70;;;18.50;4.30;;;;;;5055020;28;20326;-81
2023/07/23 00:25:06;;;;;;;3.85;3.55;;;18.50;3.30;;;;;;5053216;28;20251;-82
2023/07/23 00:27:32;;;;;;;4.03;3.47;;;18.50;3.30;;;;;;5054633;28;20181;-80
2023/07/23 00:29:57;;;;;;;5.03;3.60;;;18.50;2.30;;;;;;5054745;28;20647;-81
2023/07/23 00:32:23;;;;;;;4.50;4.10;;;18.50;1.00;;;;;;5054660;28;20663;-80
2023/07/23 00:34:49;;;;;;;6.63;3.80;;;18.60;1.00;;;;;;5054594;28;20209;-80
2023/07/23 00:37:15;;;;;;;4.07;3.30;;;18.70;1.00;;;;;;5054727;28;20176;-80
2023/07/23 00:39:41;;;;;;;4.05;3.42;;;18.70;1.00;;;;;;5053102;28;20204;-80
2023/07/23 00:42:07;;;;;;;6.05;3.30;;;18.80;1.00;;;;;;5054268;28;20225;-81
2023/07/23 00:44:33;;;;;;;8.98;3.60;;;18.90;1.00;;;;;;5054428;28;20181;-80
2023/07/23 00:47:00;;;;;;;5.60;3.45;;;18.90;1.00;;;;;;5054269;28;20165;-81
2023/07/23 00:49:26;;;;;;;3.53;3.22;;;19.00;1.00;;;;;;5054699;28;20173;-80
2023/07/23 00:51:53;;;;;;;4.32;3.60;;;19.00;1.00;;;;;;5054441;28;20705;-81
2023/07/23 00:54:20;;;;;;;3.72;3.25;;;19.10;1.00;;;;;;5053781;28;20181;-80
2023/07/23 00:56:46;;;;;;;4.47;3.60;;;19.10;1.00;;;;;;5054456;28;20169;-81
2023/07/23 00:59:13;;;;;;;3.53;2.92;;;19.20;1.00;;;;;;5054332;28;20294;-81
2023/07/23 01:01:39;;;;;;;4.38;3.10;;;19.20;1.00;;;;;;5054398;28;20176;-81
2023/07/23 01:04:05;;;;;;;5.13;3.70;;;19.20;1.00;;;;;;5054184;28;20242;-79
2023/07/23 01:06:33;;;;;;;8.80;3.97;;;19.30;1.00;;;;;;5054330;28;20177;-80
2023/07/23 01:09:00;;;;;;;4.03;3.40;;;19.30;1.00;;;;;;5053967;28;20162;-80
2023/07/23 01:11:27;;;;;;;7.50;3.20;;;19.30;1.00;;;;;;5054205;28;20177;-80
2023/07/23 01:13:55;;;;;;;5.47;3.30;;;19.30;1.00;;;;;;5054165;28;20173;-80
2023/07/23 01:16:23;;;;;;;3.72;3.15;;;19.20;1.00;;;;;;5053909;28;20607;-80
2023/07/23 01:18:49;;;;;;;4.10;3.50;;;19.30;1.00;;;;;;5053992;28;20248;-82
2023/07/23 01:21:16;;;;;;;5.50;3.40;;;19.30;1.00;;;;;;5054162;28;20169;-81
2023/07/23 01:23:43;;;;;;;4.07;3.10;;;19.30;1.00;;;;;;5053632;28;20169;-80
2023/07/23 01:26:09;;;;;;;4.28;3.40;;;19.40;1.00;;;;;;5053792;28;20678;-79
2023/07/23 01:28:35;;;;;;;6.32;3.42;;;19.40;1.00;;;;;;5053686;28;20249;-80
2023/07/23 01:31:00;;;;;;;3.58;3.28;;;19.40;1.00;;;;;;5053677;28;20239;-79
2023/07/23 01:33:26;;;;;;;4.88;3.20;;;19.40;1.00;;;;;;5053696;28;20211;-80
2023/07/23 01:35:55;;;;;;;3.75;3.38;;;19.40;1.00;;;;;;5053534;28;20209;-80
2023/07/23 01:38:22;;;;;;;3.10;2.83;;;19.40;1.00;;;;;;5053439;28;20637;-80
2023/07/23 01:40:48;;;;;;;4.78;3.17;;;19.30;1.00;;;;;;5053606;28;20244;-79
2023/07/23 01:43:14;;;;;;;6.97;3.53;;;19.40;1.00;;;;;;5053773;28;20165;-80
2023/07/23 01:45:44;;;;;;;3.33;3.00;;;19.40;1.00;;;;;;5052150;28;20173;-79
2023/07/23 01:48:11;;;;;;;4.97;2.95;;;19.40;1.00;;;;;;5053557;28;20166;-80
2023/07/23 01:50:36;;;;;;;4.47;3.17;;;19.40;1.00;;;;;;5053529;28;20211;-80
2023/07/23 01:53:03;;;;;;;4.32;3.28;;;19.40;1.00;;;;;;5051920;28;20227;-80
2023/07/23 01:55:29;;;;;;;3.17;2.92;;;19.40;1.00;;;;;;5053257;28;20625;-80
2023/07/23 01:57:54;;;;;;;3.65;3.00;;;19.30;1.00;;;;;;5053359;28;20191;-80
2023/07/23 02:00:20;;;;;;;3.20;2.95;;;19.30;1.00;;;;;;5053423;28;20205;-80
2023/07/23 02:02:45;;;;;;;3.50;3.20;;;19.30;1.00;;;;;;5059542;28;20632;-80
2023/07/23 02:05:13;;;;;;;5.40;3.10;;;19.30;1.00;;;;;;5060180;28;20551;-81
2023/07/23 02:07:39;;;;;;;4.40;3.03;;;19.30;1.00;;;;;;5059750;28;20161;-80
2023/07/23 02:10:05;;;;;;;5.45;3.20;;;19.20;1.00;;;;;;5060210;28;20171;-79
2023/07/23 02:12:32;;;;;;;7.28;3.10;;;19.20;1.00;;;;;;5059907;28;20640;-79
2023/07/23 02:14:58;;;;;;;4.05;3.10;;;19.20;1.00;;;;;;5059961;28;20205;-79
2023/07/23 02:17:24;;;;;;;7.45;3.45;;;19.20;1.00;;;;;;5059881;28;20238;-81
2023/07/23 02:19:49;;;;;;;5.97;3.40;;;19.20;1.00;;;;;;5058732;28;20177;-81
2023/07/23 02:22:15;;;;;;;6.30;3.35;;;19.20;1.00;;;;;;5059691;28;20210;-80
2023/07/23 02:24:41;;;;;;;3.63;3.20;;;19.10;1.00;;;;;;5059965;28;20525;-80
2023/07/23 02:27:06;;;;;;;3.70;2.80;;;19.10;1.00;;;;;;5059815;28;20165;-78
2023/07/23 02:29:32;;;;;;;4.32;3.00;;;19.00;1.00;;;;;;5059887;28;20344;-79
2023/07/23 02:31:57;;;;;;;5.13;3.50;;;19.00;1.00;;;;;;5059781;28;20176;-80
2023/07/23 02:34:23;;;;;;;7.60;3.28;;;18.90;1.00;;;;;;5058307;28;20174;-80
2023/07/23 02:36:49;;;;;;;5.53;3.28;;;18.90;1.00;;;;;;5059537;28;20180;-79
2023/07/23 02:39:14;;;;;;;7.28;3.17;;;18.90;1.00;;;;;;5059700;28;20679;-81
2023/07/23 02:41:40;;;;;;;4.15;3.17;;;18.90;1.00;;;;;;5059306;28;20228;-79
2023/07/23 02:44:06;;;;;;;3.70;3.00;;;18.80;1.00;;;;;;5058501;28;20644;-79
2023/07/23 02:46:31;;;;;;;5.05;3.10;;;18.80;1.00;;;;;;5059682;28;20185;-80
2023/07/23 02:48:57;;;;;;;4.63;3.03;;;18.70;1.00;;;;;;5059796;28;20215;-80
2023/07/23 02:51:22;;;;;;;5.82;3.53;;;18.70;1.00;;;;;;5059486;28;20218;-80
2023/07/23 02:53:52;;;;;;;5.65;2.80;;;18.70;1.00;;;;;;5058264;28;20632;-81
2023/07/23 02:56:17;;;;;;;6.43;3.30;;;18.70;1.00;;;;;;5059609;28;20240;-81
2023/07/23 02:58:43;;;;;;;6.05;3.35;;;18.70;1.00;;;;;;5060384;28;20168;-80
2023/07/23 03:01:09;;;;;;;6.43;3.42;;;18.70;1.00;;;;;;5058618;28;20181;-79
2023/07/23 03:03:35;;;;;;;4.05;3.63;;;18.60;1.00;;;;;;5059558;28;20246;-79
2023/07/23 03:06:02;;;;;;;4.83;3.17;;;18.60;1.00;;;;;;5059588;28;20253;-79
2023/07/23 03:08:28;;;;;;;3.03;2.80;;;18.60;1.00;;;;;;5059966;28;20192;-80
2023/07/23 03:10:53;;;;;;;6.63;3.38;;;18.60;1.00;;;;;;5059888;28;20604;-79
2023/07/23 03:13:19;;;;;;;4.82;3.10;;;18.60;1.00;;;;;;5056564;28;20219;-80
2023/07/23 03:15:45;;;;;;;3.30;3.00;;;18.60;1.00;;;;;;5055721;28;20228;-79
2023/07/23 03:18:10;;;;;;;5.28;3.28;;;18.60;1.00;;;;;;5055823;28;20593;-79
2023/07/23 03:20:36;;;;;;;3.40;3.10;;;18.60;1.00;;;;;;5055872;28;20576;-80
2023/07/23 03:23:02;;;;;;;5.65;3.30;;;18.60;1.00;;;;;;5055829;28;20260;-80
2023/07/23 03:25:27;;;;;;;4.22;3.60;;;18.60;1.00;;;;;;5056547;28;20643;-79
2023/07/23 03:27:56;;;;;;;3.28;2.97;;;18.50;1.00;;;;;;5056443;28;20244;-79
2023/07/23 03:30:22;;;;;;;5.10;4.05;;;18.50;1.00;;;;;;5056100;28;20185;-80
2023/07/23 03:32:48;;;;;;;4.65;3.00;;;18.60;1.00;;;;;;5056137;28;20523;-80
2023/07/23 03:35:13;;;;;;;3.17;2.97;;;18.50;1.00;;;;;;5055723;28;20216;-80
2023/07/23 03:37:39;;;;;;;5.18;3.00;;;18.50;1.00;;;;;;5055836;28;20475;-80
2023/07/23 03:40:05;;;;;;;4.32;3.03;;;18.50;1.00;;;;;;5055449;28;20201;-78
2023/07/23 03:42:31;;;;;;;4.47;2.95;;;18.50;1.00;;;;;;5056024;28;20181;-79
2023/07/23 03:44:57;;;;;;;3.58;3.10;;;18.50;1.00;;;;;;5055611;28;20184;-79
2023/07/23 03:47:22;;;;;;;5.10;3.42;;;18.50;1.00;;;;;;5054946;28;20192;-80
2023/07/23 03:49:48;;;;;;;3.47;3.17;;;18.40;1.00;;;;;;5055131;28;20196;-79
2023/07/23 03:52:14;;;;;;;3.13;2.92;;;18.40;1.00;;;;;;5055133;28;20173;-79
2023/07/23 03:54:40;;;;;;;5.03;3.07;;;18.40;1.00;;;;;;5054137;28;20216;-80
2023/07/23 03:57:06;;;;;;;6.78;3.13;;;18.40;1.00;;;;;;5055698;28;20177;-80
2023/07/23 03:59:40;;;;;;;6.70;3.38;;;18.40;1.00;;;;;;5055230;28;20512;-80
2023/07/23 04:02:06;;;;;;;3.78;3.30;;;18.40;1.00;;;;;;5054882;28;20192;-80
2023/07/23 04:04:33;;;;;;;3.20;2.90;;;18.40;1.00;;;;;;5054604;28;20552;-80
2023/07/23 04:06:59;;;;;;;5.97;2.73;;;18.40;1.00;;;;;;5053648;28;20581;-80
2023/07/23 04:09:24;;;;;;;7.00;3.50;;;18.40;1.00;;;;;;5055275;28;20169;-80
2023/07/23 04:11:50;;;;;;;4.10;3.25;;;18.40;1.00;;;;;;5055105;28;20227;-81
2023/07/23 04:14:15;;;;;;;9.20;3.15;;;18.30;1.00;;;;;;5054811;28;20215;-79
2023/07/23 04:16:41;;;;;;;4.63;3.20;;;18.40;1.00;;;;;;5054753;28;20173;-80
2023/07/23 04:19:07;;;;;;;6.00;3.05;;;18.40;1.00;;;;;;5054894;28;20173;-79
2023/07/23 04:21:32;;;;;;;3.20;2.80;;;18.40;1.00;;;;;;5054547;28;20176;-79
2023/07/23 04:24:00;;;;;;;3.13;2.83;;;18.40;1.00;;;;;;5054433;28;20173;-80
2023/07/23 04:26:28;;;;;;;5.68;3.03;;;18.40;1.00;;;;;;5054899;28;20161;-79
2023/07/23 04:28:53;;;;;;;3.25;2.97;;;18.30;1.00;;;;;;5055058;28;20177;-80
2023/07/23 04:31:19;;;;;;;3.60;2.90;;;18.40;1.00;;;;;;5054401;28;20173;-80
2023/07/23 04:33:46;;;;;;;3.20;2.90;;;18.40;1.00;;;;;;5054560;28;20180;-79
2023/07/23 04:36:13;;;;;;;4.00;2.95;;;18.30;1.00;;;;;;5054165;28;20201;-79
2023/07/23 04:38:40;;;;;;;4.95;3.05;;;18.30;1.00;;;;;;5054594;28;20169;-79
2023/07/23 04:41:06;;;;;;;4.55;3.13;;;18.30;1.00;;;;;;5054367;28;20322;-79
2023/07/23 04:43:36;;;;;;;5.00;3.50;;;18.30;1.00;;;;;;5054324;28;20170;-79
2023/07/23 04:46:04;;;;;;;5.05;3.50;;;18.20;1.00;;;;;;5053795;28;20173;-79
2023/07/23 04:48:30;;;;;;;8.27;3.50;;;18.20;1.00;;;;;;5054798;28;20672;-79
2023/07/23 04:51:01;;;;;;;3.90;3.50;;;18.20;1.00;;;;;;5054201;28;20184;-79
2023/07/23 04:53:27;;;;;;;6.33;3.37;;;18.10;1.00;;;;;;5053063;28;20188;-80
2023/07/23 04:55:53;;;;;;;4.67;3.17;;;18.10;1.00;;;;;;5054129;28;20212;-80
2023/07/23 04:58:20;;;;;;;6.17;3.60;;;18.10;1.00;;;;;;5054323;28;20173;-80
2023/07/23 05:00:46;;;;;;;3.67;3.37;;;18.10;1.00;;;;;;5054107;28;20169;-80
2023/07/23 05:03:11;;;;;;;3.77;3.43;;;18.10;1.00;;;;;;5054093;28;20219;-80
2023/07/23 05:05:39;;;;;;;4.40;3.60;;;18.10;1.00;;;;;;5054964;28;20261;-80
2023/07/23 05:08:05;;;;;;;4.17;3.77;;;18.10;1.00;;;;;;5054495;28;20205;-80
2023/07/23 05:10:30;;;;;;;3.80;3.50;;;18.00;1.00;;;;;;5054311;28;20201;-80
2023/07/23 05:12:56;;;;;;;4.93;3.90;;;18.00;1.00;;;;;;5054010;28;20240;-79
2023/07/23 05:15:21;;;;;;;7.97;4.10;;;18.00;1.00;;;;;;5053583;28;20562;-80
2023/07/23 05:17:47;;;;;;;7.70;4.00;;;18.00;1.00;;;;;;5053500;28;20176;-80
2023/07/23 05:20:12;;;;;;;4.53;4.13;;;18.00;1.80;;;;;;5053498;28;20256;-80
2023/07/23 05:22:39;;;;;;;6.03;4.07;;;18.10;1.90;;;;;;5053302;28;20252;-80
2023/07/23 05:25:06;;;;;;;5.57;4.47;;;18.10;1.00;;;;;;5053466;28;20177;-80
2023/07/23 05:27:32;;;;;;;6.43;4.43;;;18.10;1.00;;;;;;5053549;28;20295;-80
2023/07/23 05:29:57;;;;;;;7.60;4.13;;;18.10;1.00;;;;;;5052016;28;20264;-80
2023/07/23 05:32:24;;;;;;;4.27;3.87;;;18.10;1.00;;;;;;5053254;28;20683;-79
2023/07/23 05:34:50;;;;;;;6.17;4.80;;;18.10;1.00;;;;;;5053150;28;20200;-80
2023/07/23 05:37:15;;;;;;;7.57;4.63;;;18.10;2.90;;;;;;5052462;28;20668;-80
2023/07/23 05:39:41;;;;;;;5.20;4.67;;;18.20;1.00;;;;;;5053322;28;20174;-79
2023/07/23 05:42:07;;;;;;;5.53;4.53;;;18.20;1.00;;;;;;5051595;28;20229;-80
2023/07/23 05:44:33;;;;;;;4.47;4.07;;;18.20;1.00;;;;;;5051522;28;20547;-80
2023/07/23 05:46:58;;;;;;;5.72;4.40;;;18.10;1.00;;;;;;5052933;28;20174;-79
2023/07/23 05:49:25;;;;;;;4.68;4.28;;;18.10;2.20;;;;;;5052869;28;20181;-79
2023/07/23 05:51:51;;;;;;;4.97;4.27;;;18.20;1.10;;;;;;5053019;28;20247;-79
2023/07/23 05:54:17;;;;;;;4.97;4.50;;;18.30;1.90;;;;;;5052859;28;20268;-78
2023/07/23 05:56:43;;;;;;;6.35;4.57;;;18.20;1.90;;;;;;5052915;28;20253;-81
2023/07/23 05:59:08;;;;;;;5.03;4.53;;;18.20;3.70;;;;;;5052774;28;20587;-79
2023/07/23 06:01:35;;;;;;;8.00;4.33;;;18.10;7.80;;;;;;5052985;28;20641;-80
2023/07/23 06:04:00;;;;;;;5.90;5.07;;;18.00;16.10;;;;;;5052940;28;20262;-79
2023/07/23 06:06:26;;;;;;;9.17;4.90;;;18.00;19.30;;;;;;5052882;28;20640;-80
2023/07/23 06:08:52;;;;;;;7.67;5.27;;;18.10;26.50;;;;;;5051782;28;20224;-79
2023/07/23 06:11:17;;;;;;;9.50;5.60;;;18.00;30.20;;;;;;5052935;28;20527;-80
2023/07/23 06:13:43;;;;;;;7.97;6.13;;;17.90;39.80;;;;;;5052654;28;20165;-80
2023/07/23 06:16:09;;;;;;;6.30;5.70;;;17.80;53.60;;;;;;5052536;28;20560;-79
2023/07/23 06:18:35;;;;;;;6.70;6.07;;;17.50;80.50;;;;;;5052859;28;20226;-80
2023/07/23 06:21:02;;;;;;;8.63;6.43;;;17.20;98.70;;;;;;5052928;28;20165;-79
2023/07/23 06:23:28;;;;;;;8.10;6.83;;;17.10;99.90;;;;;;5052626;28;20335;-78
2023/07/23 06:25:54;;;;;;;9.47;6.70;;;17.10;99.90;;;;;;5052951;28;20169;-79
2023/07/23 06:28:20;;;;;;;11.60;6.63;;;17.00;99.90;;;;;;5054229;28;20264;-80
2023/07/23 06:30:46;;;;;;;8.73;6.93;;;17.00;99.90;;;;;;5052894;28;20528;-80
2023/07/23 06:33:11;;;;;;;11.93;7.00;;;16.90;99.90;;;;;;5052890;28;20177;-80
2023/07/23 06:35:41;;;;;;;9.23;6.80;;;16.80;99.90;;;;;;5052479;28;20284;-80
2023/07/23 06:38:06;;;;;;;8.20;6.37;;;16.70;99.90;;;;;;5053004;28;20203;-80
2023/07/23 06:40:32;;;;;;;8.37;6.80;;;16.50;99.90;;;;;;5051308;28;20727;-80
2023/07/23 06:42:58;;;;;;;7.13;6.13;;;16.40;99.90;;;;;;5052319;28;20170;-80
2023/07/23 06:45:23;;;;;;;9.10;6.87;;;16.40;99.90;;;;;;5051918;28;20538;-79
2023/07/23 06:47:49;;;;;;;6.90;6.20;;;16.30;99.90;;;;;;5053044;28;20173;-79
2023/07/23 06:50:17;;;;;;;7.77;6.40;;;16.30;99.90;;;;;;5055893;28;20170;-78
2023/07/23 06:52:43;;;;;;;7.67;6.87;;;16.20;99.90;;;;;;5056369;28;20212;-78
2023/07/23 06:55:09;;;;;;;8.00;6.67;;;16.20;99.90;;;;;;5056511;28;20232;-80
2023/07/23 06:57:35;;;;;;;6.63;5.97;;;16.10;99.90;;;;;;5055590;28;20172;-78
2023/07/23 07:00:00;;;;;;;7.23;6.47;;;16.10;99.90;;;;;;5056542;28;20181;-79
2023/07/23 07:02:26;;;;;;;7.63;5.83;;;16.00;99.90;;;;;;5056342;28;20663;-79
2023/07/23 07:04:52;;;;;;;8.73;6.43;;;16.00;99.90;;;;;;5055983;28;20315;-80
2023/07/23 07:07:17;;;;;;;8.20;7.20;;;16.00;99.90;;;;;;5056116;28;20302;-80
2023/07/23 07:09:43;;;;;;;8.30;6.63;;;15.90;99.90;;;;;;5055460;28;20177;-81
2023/07/23 07:12:09;;;;;;;6.73;5.80;;;16.00;99.90;;;;;;5054694;28;20169;-81
2023/07/23 07:14:34;;;;;;;6.67;6.07;;;16.00;99.90;;;;;;5055794;28;20169;-81
2023/07/23 07:17:00;;;;;;;6.50;5.80;;;16.00;99.90;;;;;;5056108;28;20223;-80
2023/07/23 07:19:25;;;;;;;9.40;6.70;;;16.00;99.90;;;;;;5055840;28;20193;-82
2023/07/23 07:21:51;;;;;;;7.13;6.43;;;16.10;99.90;;;;;;5055767;28;20169;-82
2023/07/23 07:24:17;;;;;;;7.67;5.80;;;16.10;99.90;;;;;;5055767;28;20567;-82
2023/07/23 07:26:43;;;;;;;6.30;5.70;;;16.10;99.90;;;;;;5054857;28;20285;-82
2023/07/23 07:29:08;;;;;;;6.43;5.53;;;16.10;99.90;;;;;;5055773;28;20236;-83
2023/07/23 07:31:34;;;;;;;8.10;6.60;;;16.10;99.90;;;;;;5055830;28;20195;-82
2023/07/23 07:34:02;;;;;;;7.47;5.87;;;16.20;99.90;;;;;;5055404;28;20169;-81
2023/07/23 07:36:28;;;;;;;6.13;5.53;;;16.30;99.90;;;;;;5055962;28;20604;-81
2023/07/23 07:38:53;;;;;;;7.10;5.80;;;16.30;99.90;;;;;;5055592;28;20235;-81
2023/07/23 07:41:19;;;;;;;6.20;5.63;;;16.40;99.90;;;;;;5053120;28;20225;-83
2023/07/23 07:43:44;;;;;;;6.97;5.20;;;16.40;99.90;;;;;;5055358;28;20177;-82
2023/07/23 07:46:10;;;;;;;5.80;5.20;;;16.40;99.90;;;;;;5055683;28;20169;-82
2023/07/23 07:48:37;;;;;;;8.23;5.60;;;16.50;99.90;;;;;;5055829;28;20234;-83
2023/07/23 07:51:05;;;;;;;7.47;5.63;;;16.60;99.90;;;;;;5055432;28;20188;-81
2023/07/23 07:53:32;;;;;;;6.10;5.50;;;16.70;99.90;;;;;;5055235;28;20180;-82
2023/07/23 07:55:59;;;;;;;6.27;5.67;;;16.60;99.90;;;;;;5054594;28;20236;-82
2023/07/23 07:58:25;;;;;;;6.27;5.63;;;16.70;99.90;;;;;;5054553;28;20165;-83
2023/07/23 08:00:55;;;;;;;5.53;5.00;;;16.60;99.90;;;;;;5053384;28;20184;-82
2023/07/23 08:03:25;;;;;;;5.43;4.93;;;16.60;99.90;;;;;;5054991;28;20185;-81
2023/07/23 08:05:52;;;;;;;5.83;5.33;;;16.70;99.90;;;;;;5055064;28;20170;-83
2023/07/23 08:08:22;;;;;;;6.33;5.37;;;16.70;99.90;;;;;;5055126;28;20177;-81
2023/07/23 08:10:48;;;;;;;6.57;5.30;;;16.90;99.90;;;;;;5054883;28;20609;-81
2023/07/23 08:13:15;;;;;;;5.90;5.40;;;16.90;99.90;;;;;;5054896;28;20173;-80
2023/07/23 08:15:41;;;;;;;5.43;5.00;;;17.10;99.90;;;;;;5053055;28;20566;-83
2023/07/23 08:18:07;;;;;;;4.93;4.53;;;17.10;99.90;;;;;;5055241;28;20252;-82
2023/07/23 08:20:34;;;;;;;5.37;4.87;;;17.10;99.90;;;;;;5054860;28;20189;-81
2023/07/23 08:23:01;;;;;;;6.67;4.80;;;17.20;99.90;;;;;;5053889;28;20165;-82
2023/07/23 08:25:29;;;;;;;5.67;5.17;;;17.10;99.90;;;;;;5054585;28;20174;-82
2023/07/23 08:28:00;;;;;;;6.07;5.17;;;17.20;99.90;;;;;;5053067;28;20256;-81
2023/07/23 08:30:27;;;;;;;7.23;4.73;;;17.10;99.90;;;;;;5055101;28;20269;-81
2023/07/23 08:32:58;;;;;;;5.23;4.73;;;17.10;99.90;;;;;;5054870;28;20169;-82
2023/07/23 08:35:25;;;;;;;5.33;4.70;;;17.00;99.90;;;;;;5054485;28;20205;-80
2023/07/23 08:37:51;;;;;;;5.63;5.13;;;17.00;99.90;;;;;;5054425;28;20645;-81
2023/07/23 08:40:18;;;;;;;5.60;5.10;;;17.10;99.90;;;;;;5054105;28;20169;-81
2023/07/23 08:43:12;;;;;;;5.27;4.77;;;17.20;99.90;;;;;;5052991;28;20585;-82
2023/07/23 08:45:59;;;;;;;5.10;4.57;;;17.10;99.90;;;;;;5053953;28;20180;-81
2023/07/23 08:48:42;;;;;;;4.77;4.37;;;17.10;99.90;;;;;;5054900;28;20230;-82
2023/07/23 08:51:09;;;;;;;4.50;4.10;;;16.90;99.90;;;;;;5054127;28;20268;-81
2023/07/23 08:53:35;;;;;;;5.53;4.67;;;16.90;99.90;;;;;;5053543;28;20169;-82
2023/07/23 08:56:01;;;;;;;4.70;4.20;;;17.00;99.90;;;;;;5054430;28;20552;-82
2023/07/23 08:58:27;;;;;;;5.50;5.00;;;17.00;99.90;;;;;;5054029;28;20173;-80
2023/07/23 09:00:52;;;;;;;6.10;4.60;;;16.80;99.90;;;;;;5054285;28;20180;-81
2023/07/23 09:03:20;;;;;;;6.50;5.23;;;17.00;99.90;;;;;;5053680;28;20552;-81
2023/07/23 09:05:45;;;;;;;5.57;5.17;;;17.10;99.90;;;;;;5053638;28;20173;-81
2023/07/23 09:08:11;;;;;;;5.33;4.70;;;17.10;99.90;;;;;;5052463;28;20755;-81
2023/07/23 09:10:37;;;;;;;7.53;5.73;;;17.00;99.90;;;;;;5051408;28;20510;-82
2023/07/23 09:13:11;;;;;;;5.77;5.30;;;17.10;99.90;;;;;;5051880;28;20177;-83
2023/07/23 09:15:37;;;;;;;6.20;5.60;;;17.00;99.90;;;;;;5053500;28;20241;-81
2023/07/23 09:18:03;;;;;;;6.97;6.10;;;17.00;99.90;;;;;;5053842;28;20181;-82
2023/07/23 09:20:28;;;;;;;6.17;5.67;;;17.10;99.90;;;;;;5053397;28;20181;-81
2023/07/23 09:22:54;;;;;;;8.80;6.50;;;17.20;99.90;;;;;;5052864;28;20188;-83
2023/07/23 09:25:20;;;;;;;6.93;5.87;;;17.20;99.90;;;;;;5053694;28;20177;-82
2023/07/23 09:27:46;;;;;;;6.27;5.67;;;17.30;99.90;;;;;;5053381;28;20170;-83
2023/07/23 09:30:18;;;;;;;6.83;5.77;;;17.30;99.90;;;;;;5053507;28;20169;-82
2023/07/23 09:32:54;;;;;;;6.80;5.50;;;17.40;99.90;;;;;;5053484;28;20177;-84
2023/07/23 09:35:22;;;;;;;6.60;5.60;;;17.50;99.90;;;;;;5052846;28;20208;-83
2023/07/23 09:37:56;;;;;;;6.13;5.53;;;17.70;99.90;;;;;;5053535;28;20173;-83
2023/07/23 09:40:21;;;;;;;5.77;5.33;;;17.90;99.90;;;;;;5051497;28;20235;-83
2023/07/23 09:42:48;;;;;;;5.77;5.27;;;17.90;99.90;;;;;;5053306;28;20173;-83
2023/07/23 09:45:13;;;;;;;6.77;5.67;;;18.00;99.90;;;;;;5053752;28;20208;-83
2023/07/23 09:47:39;;;;;;;5.50;5.00;;;18.20;99.90;;;;;;5054661;28;20173;-83
2023/07/23 09:50:05;;;;;;;5.88;5.22;;;18.30;99.90;;;;;;5054650;28;20173;-83
2023/07/23 09:52:35;;;;;;;6.30;5.07;;;18.30;99.90;;;;;;5053499;28;20169;-82
2023/07/23 09:55:02;;;;;;;5.95;5.45;;;18.30;99.90;;;;;;5052919;28;20204;-83
2023/07/23 09:57:30;;;;;;;5.97;5.35;;;18.40;99.90;;;;;;5055539;28;20180;-82
2023/07/23 09:59:57;;;;;;;6.20;5.60;;;18.50;99.90;;;;;;5055543;28;20231;-82
2023/07/23 10:02:25;;;;;;;6.43;5.43;;;18.60;99.90;;;;;;5056809;28;20317;-82
2023/07/23 10:04:51;;;;;;;5.80;5.25;;;18.60;99.90;;;;;;5055841;28;20306;-82
2023/07/23 10:07:17;;;;;;;5.18;4.70;;;18.70;99.90;;;;;;5058750;28;20234;-82
2023/07/23 10:09:43;;;;;;;5.80;5.25;;;18.70;99.90;;;;;;5055816;28;20173;-81
2023/07/23 10:12:08;;;;;;;6.07;5.47;;;19.00;99.90;;;;;;5054494;28;20165;-82
2023/07/23 10:14:34;;;;;;;5.93;5.47;;;19.00;99.90;;;;;;5053582;28;20181;-82
2023/07/23 10:17:00;;;;;;;5.57;5.10;;;19.20;99.90;;;;;;5053262;28;20173;-82
2023/07/23 10:19:27;;;;;;;5.25;4.75;;;19.40;99.90;;;;;;5053094;28;20181;-82
2023/07/23 10:21:53;;;;;;;5.07;4.72;;;19.70;99.90;;;;;;5052600;28;20165;-82
2023/07/23 10:24:18;;;;;;;5.03;4.28;;;19.90;99.90;;;;;;5057038;28;20260;-83
2023/07/23 10:26:48;;;;;;;4.63;4.32;;;20.10;99.90;;;;;;5056536;28;20169;-82
2023/07/23 10:29:24;;;;;;;5.05;4.53;;;20.40;94.90;;;;;;5056587;28;20173;-82
2023/07/23 10:31:56;;;;;;;4.93;4.50;;;20.50;92.10;;;;;;5056837;28;20168;-82
2023/07/23 10:34:22;;;;;;;4.85;4.40;;;20.50;91.80;;;;;;5056143;28;20238;-82
2023/07/23 10:37:13;;;;;;;4.95;4.28;;;20.60;90.90;;;;;;5056870;28;20668;-81
2023/07/23 10:39:41;;;;;;;4.72;4.35;;;20.70;82.20;;;;;;5055974;28;20241;-82
2023/07/23 10:42:06;;;;;;;5.53;4.40;;;20.80;89.10;;;;;;5056848;28;20696;-82
2023/07/23 10:44:32;;;;;;;5.47;4.43;;;20.70;83.70;;;;;;5056810;28;20183;-81
2023/07/23 10:46:59;;;;;;;4.85;4.28;;;20.70;88.20;;;;;;5056460;28;20165;-82
2023/07/23 10:49:29;;;;;;;4.78;4.40;;;21.00;82.20;;;;;;5056331;28;20177;-82
2023/07/23 10:52:12;;;;;;;4.30;3.90;;;21.20;67.00;;;;;;5056876;28;20168;-82
2023/07/23 10:54:38;;;;;;;5.25;4.10;;;21.20;58.90;;;;;;5056343;28;20524;-82
2023/07/23 10:57:06;;;;;;;4.07;3.78;;;21.20;60.30;;;;;;5055476;28;20224;-82
2023/07/23 10:59:31;;;;;;;4.20;3.88;;;21.40;51.50;;;;;;5056760;28;20328;-81
2023/07/23 11:01:57;;;;;;;4.68;4.25;;;21.60;49.30;;;;;;5058338;28;20166;-81
2023/07/23 11:04:25;;;;;;;4.57;3.65;;;21.80;47.20;;;;;;5059293;28;20668;-81
2023/07/23 11:07:00;;;;;;;4.32;3.92;;;21.70;39.20;;;;;;5058675;28;20188;-81
2023/07/23 11:09:37;;;;;;;4.60;4.18;;;21.80;39.30;;;;;;5056099;28;20165;-81
2023/07/23 11:12:05;;;;;;;4.57;4.20;;;21.90;44.00;;;;;;5054865;28;20187;-81
2023/07/23 11:14:32;;;;;;;5.47;3.97;;;22.00;43.90;;;;;;5056591;28;20641;-81
2023/07/23 11:17:02;;;;;;;4.40;4.07;;;22.00;37.50;;;;;;5057682;28;20184;-81
2023/07/23 11:19:29;;;;;;;5.03;4.53;;;22.00;42.60;;;;;;5060088;28;20571;-81
2023/07/23 11:22:00;;;;;;;4.43;4.13;;;22.10;34.30;;;;;;5059624;28;20271;-81
2023/07/23 11:24:28;;;;;;;4.68;3.65;;;22.30;33.30;;;;;;5056950;28;20256;-81
2023/07/23 11:26:58;;;;;;;3.90;3.60;;;22.40;34.50;;;;;;5056256;28;20188;-81
2023/07/23 11:29:24;;;;;;;5.95;4.15;;;22.10;30.30;;;;;;5054021;28;20181;-80
2023/07/23 11:31:51;;;;;;;3.53;3.33;;;21.80;41.60;;;;;;5054473;28;20624;-82
2023/07/23 11:34:18;;;;;;;5.00;4.18;;;22.00;38.80;;;;;;5054097;28;20173;-80
2023/07/23 11:36:44;;;;;;;7.28;4.00;;;22.20;33.50;;;;;;5055729;28;20255;-80
2023/07/23 11:39:09;;;;;;;4.07;3.60;;;22.10;34.40;;;;;;5055768;28;20169;-81
2023/07/23 11:41:38;;;;;;;4.75;3.72;;;22.00;37.40;;;;;;5054959;28;20696;-82
2023/07/23 11:44:04;;;;;;;4.07;3.78;;;21.70;40.60;;;;;;5055313;28;20174;-80
2023/07/23 11:46:38;;;;;;;4.18;3.72;;;21.70;42.70;;;;;;5054565;28;20171;-81
2023/07/23 11:49:08;;;;;;;4.10;3.58;;;21.70;43.70;;;;;;5055219;28;20177;-80
2023/07/23 11:51:34;;;;;;;4.00;3.70;;;21.80;37.70;;;;;;5055222;28;20656;-81
2023/07/23 11:54:04;;;;;;;4.60;3.10;;;22.10;34.00;;;;;;5054558;28;20173;-81
2023/07/23 11:56:33;;;;;;;7.38;3.58;;;22.20;28.90;;;;;;5053848;28;20232;-81
2023/07/23 11:59:04;;;;;;;3.75;3.55;;;22.40;25.60;;;;;;5054778;28;20172;-81
2023/07/23 12:01:29;;;;;;;3.58;3.28;;;22.50;23.10;;;;;;5054193;28;20710;-80
2023/07/23 12:03:59;;;;;;;4.00;3.70;;;22.60;21.10;;;;;;5054154;28;20193;-82
2023/07/23 12:06:28;;;;;;;4.13;3.80;;;22.70;19.80;;;;;;5054938;28;20181;-82
2023/07/23 12:08:53;;;;;;;4.07;3.42;;;23.00;16.70;;;;;;5054760;28;20682;-80
2023/07/23 12:11:19;;;;;;;4.05;3.63;;;22.70;16.60;;;;;;5054567;28;20307;-81
2023/07/23 12:13:50;;;;;;;3.97;3.67;;;22.70;18.30;;;;;;5054606;28;20224;-81
2023/07/23 12:16:31;;;;;;;4.35;3.95;;;22.60;18.90;;;;;;5054051;28;20293;-80
2023/07/23 12:19:05;;;;;;;3.92;3.63;;;22.50;21.80;;;;;;5054938;28;20467;-81
2023/07/23 12:21:42;;;;;;;3.50;3.30;;;22.60;23.80;;;;;;5053621;28;20515;-81
2023/07/23 12:24:14;;;;;;;5.07;3.58;;;22.50;24.70;;;;;;5054298;28;20165;-81
2023/07/23 12:26:40;;;;;;;4.18;3.75;;;22.50;27.20;;;;;;5054448;28;20244;-80
2023/07/23 12:29:06;;;;;;;3.90;3.60;;;22.50;24.20;;;;;;5054054;28;20280;-80
2023/07/23 12:31:35;;;;;;;3.75;3.45;;;22.50;27.00;;;;;;5054099;28;20169;-81
2023/07/23 12:34:00;;;;;;;4.30;3.53;;;22.30;27.80;;;;;;5053903;28;20191;-81
2023/07/23 12:36:26;;;;;;;3.90;3.60;;;22.60;21.90;;;;;;5053952;28;20660;-81
2023/07/23 12:38:51;;;;;;;3.72;3.42;;;23.00;15.10;;;;;;5053818;28;20223;-81
2023/07/23 12:41:17;;;;;;;3.45;3.25;;;23.50;3.30;;;;;;5053674;28;20311;-81
2023/07/23 12:43:43;;;;;;;3.75;3.50;;;23.80;1.00;;;;;;5054212;28;20563;-81
2023/07/23 12:46:08;;;;;;;3.90;3.50;;;24.10;1.00;;;;;;5053330;28;20177;-79
2023/07/23 12:48:34;;;;;;;4.25;3.40;;;24.20;1.00;;;;;;5036359;28;20174;-79